M I D A S
Marine Information and Data Acquisition System
Tripno 900 of the Zeeleeuw from 2005-05-13 11:42:02 to 2005-05-13 13:38:10
Back to CruiseResearch ActivitiesStationsMapUnderway DataData graphs

EquipmentUnitsComment
TimeDGPSUTC
LatitudeDGPSDM.mWGS84
LongitudeDGPSDM.mWGS84
HeadingGyrodeg 
SOGDGPSknotsSpeed over ground
COGDGPSdegCourse over ground
DepthEcho soundermeters200 kHz
Missing or incorrect values are displayed as -999
Navigation data collected by the RV Zeeleeuw from 2005-05-13 07:17:48 to 2005-05-13 13:50:20
                                                                                    Next 1000 lines
Time Latitude Longitude Heading SOG COG Depth
2005-05-13 07:17:59 51°13.595 2°56.1 117.6 0.4 291 6.6
2005-05-13 07:18:04 51°13.596 2°56.098 117.6 0.7 289 6.5
2005-05-13 07:18:08 51°13.596 2°56.096 117.8 0.9 286 6.5
2005-05-13 07:18:14 51°13.597 2°56.093 118 1.3 297 6.6
2005-05-13 07:18:19 51°13.598 2°56.09 118.3 1.3 296 6.7
2005-05-13 07:18:24 51°13.599 2°56.086 118.8 1.9 298 -999
2005-05-13 07:18:29 51°13.6 2°56.081 119 1.9 298 -999
2005-05-13 07:18:35 51°13.602 2°56.075 119.1 1.9 298 -999
2005-05-13 07:18:40 51°13.604 2°56.069 119.1 2.8 297 -999
2005-05-13 07:18:45 51°13.607 2°56.062 119.1 3.4 297 -999
2005-05-13 07:18:50 51°13.609 2°56.055 118.9 3.6 296 -999
2005-05-13 07:18:55 51°13.611 2°56.047 118.3 3.6 296 -999
2005-05-13 07:18:59 51°13.613 2°56.04 118.2 3.9 296 -999
2005-05-13 07:19:05 51°13.616 2°56.03 118.1 4.2 295 -999
2005-05-13 07:19:09 51°13.618 2°56.022 118.3 4.4 294 -999
2005-05-13 07:19:15 51°13.621 2°56.012 118.6 4.4 294 -999
2005-05-13 07:19:20 51°13.624 2°56.002 119.2 4.7 295 -999
2005-05-13 07:19:24 51°13.627 2°55.993 119.9 4.8 295 -999
2005-05-13 07:19:28 51°13.629 2°55.986 120.8 4.8 295 -999
2005-05-13 07:19:34 51°13.633 2°55.973 122.1 5.1 296 -999
2005-05-13 07:19:39 51°13.636 2°55.963 123.5 5.2 298 -999
2005-05-13 07:19:45 51°13.641 2°55.952 124.7 5.2 300 -999
2005-05-13 07:19:49 51°13.644 2°55.943 126.4 5.3 301 -999
2005-05-13 07:19:55 51°13.649 2°55.932 127.6 5.4 303 -999
2005-05-13 07:20:00 51°13.653 2°55.922 128.4 5.5 304 -999
2005-05-13 07:20:05 51°13.656 2°55.913 128.8 5.5 304 -999
2005-05-13 07:20:10 51°13.66 2°55.904 129.1 5.5 304 -999
2005-05-13 07:20:15 51°13.664 2°55.894 129.2 5 305 -999
2005-05-13 07:20:19 51°13.667 2°55.887 129.5 5.2 305 -999
2005-05-13 07:20:24 51°13.672 2°55.876 129.7 5.3 306 4.9
2005-05-13 07:20:30 51°13.678 2°55.866 129.9 5.5 306 -999
2005-05-13 07:20:35 51°13.683 2°55.855 129.9 5.6 306 -999
2005-05-13 07:20:39 51°13.687 2°55.846 129.7 5.7 306 -999
2005-05-13 07:20:44 51°13.692 2°55.836 129.2 5.8 306 -999
2005-05-13 07:20:49 51°13.697 2°55.825 128.5 5.8 306 -999
2005-05-13 07:20:54 51°13.701 2°55.815 127.7 5.8 306 -999
2005-05-13 07:21:00 51°13.706 2°55.803 127.1 5.8 306 -999
2005-05-13 07:21:05 51°13.71 2°55.794 126.2 5.3 304 -999
2005-05-13 07:21:09 51°13.713 2°55.785 125 5.3 304 -999
2005-05-13 07:21:15 51°13.717 2°55.775 124.1 4.9 302 -999
2005-05-13 07:21:19 51°13.72 2°55.767 123.1 4.8 301 -999
2005-05-13 07:21:24 51°13.723 2°55.759 121.5 4.8 301 4.8
2005-05-13 07:21:28 51°13.725 2°55.752 119.6 4.4 298 12
2005-05-13 07:21:34 51°13.728 2°55.742 117.8 4.1 297 -999
2005-05-13 07:21:40 51°13.73 2°55.735 115.9 4.1 297 11.2
2005-05-13 07:21:44 51°13.731 2°55.732 114 4.1 297 10.6
2005-05-13 07:21:49 51°13.732 2°55.731 111.6 1.9 297 10.4
2005-05-13 07:21:54 51°13.733 2°55.731 107 0.5 316 10.4
2005-05-13 07:21:59 51°13.733 2°55.733 100.5 0.6 52 10.3
2005-05-13 07:22:04 51°13.734 2°55.736 92.9 1 67 10.2
2005-05-13 07:22:08 51°13.735 2°55.738 85.3 1.5 63 5
2005-05-13 07:22:14 51°13.736 2°55.742 78.4 1.5 63 5.2
2005-05-13 07:22:19 51°13.737 2°55.743 72.5 1.5 63 9.8
2005-05-13 07:22:24 51°13.738 2°55.745 68.6 1.5 63 9.7
2005-05-13 07:22:29 51°13.739 2°55.745 66.3 0.8 45 9.7
2005-05-13 07:22:34 51°13.739 2°55.745 63 0.3 -999 9.6
2005-05-13 07:22:39 51°13.739 2°55.744 59.6 0.3 300 9.5
2005-05-13 07:22:43 51°13.739 2°55.743 56.2 0.4 289 9.5
2005-05-13 07:22:48 51°13.738 2°55.741 53.7 0.8 250 9.5
2005-05-13 07:22:54 51°13.737 2°55.738 52.4 1.2 246 9.5
2005-05-13 07:22:59 51°13.737 2°55.736 51 1.4 243 9.6
2005-05-13 07:23:04 51°13.735 2°55.732 49.8 1.5 240 4.9
2005-05-13 07:23:09 51°13.734 2°55.729 48.2 1.9 237 -999
2005-05-13 07:23:15 51°13.732 2°55.725 46.5 2 235 -999
2005-05-13 07:23:20 51°13.731 2°55.721 45 2 235 -999
2005-05-13 07:23:24 51°13.729 2°55.718 43.2 2 235 -999
2005-05-13 07:23:30 51°13.727 2°55.714 41.6 2 235 -999
2005-05-13 07:23:35 51°13.726 2°55.711 39.8 1.8 232 -999
2005-05-13 07:23:40 51°13.725 2°55.709 37.5 1.8 232 -999
2005-05-13 07:23:44 51°13.724 2°55.708 33.3 1.1 236 -999
2005-05-13 07:23:49 51°13.725 2°55.707 29 1.1 236 10.1
2005-05-13 07:23:54 51°13.725 2°55.706 25.2 0.6 326 10.2
2005-05-13 07:23:59 51°13.727 2°55.706 20.7 1 347 4.9
2005-05-13 07:24:04 51°13.729 2°55.705 11.8 1.1 348 -999
2005-05-13 07:24:08 51°13.731 2°55.704 2.9 1.5 344 4.9
2005-05-13 07:24:14 51°13.734 2°55.702 359 1.5 344 4.9
2005-05-13 07:24:18 51°13.736 2°55.701 352.9 2 340 4.8
2005-05-13 07:24:24 51°13.74 2°55.698 347.5 2.4 334 9.7
2005-05-13 07:24:28 51°13.742 2°55.696 342.9 2.5 334 5
2005-05-13 07:24:34 51°13.747 2°55.692 341.1 2.9 332 5.6
2005-05-13 07:24:39 51°13.751 2°55.689 339.6 3.3 332 5.4
2005-05-13 07:24:44 51°13.756 2°55.685 339.3 3.6 332 -999
2005-05-13 07:24:49 51°13.76 2°55.681 339.9 3.6 332 9.3
2005-05-13 07:24:54 51°13.766 2°55.677 341 4.1 334 9.3
2005-05-13 07:24:59 51°13.771 2°55.673 341.9 4.4 337 9.4
2005-05-13 07:25:04 51°13.777 2°55.669 342.5 4.5 336 9.4
2005-05-13 07:25:08 51°13.783 2°55.665 342.5 4.5 336 9.5
2005-05-13 07:25:14 51°13.791 2°55.66 342.3 5 337 9.9
2005-05-13 07:25:19 51°13.797 2°55.656 342.3 5.2 337 10
2005-05-13 07:25:24 51°13.805 2°55.651 342.5 5.5 338 9.6
2005-05-13 07:25:29 51°13.812 2°55.647 343.3 5.6 339 9.6
2005-05-13 07:25:34 51°13.82 2°55.642 343.6 5.6 339 9.7
2005-05-13 07:25:39 51°13.827 2°55.638 343.7 5.8 339 9.6
2005-05-13 07:25:44 51°13.834 2°55.633 343.6 5.9 339 9.5
2005-05-13 07:25:48 51°13.841 2°55.629 343.3 6 339 9.5
2005-05-13 07:25:52 51°13.848 2°55.625 343.4 6.1 340 9.4
2005-05-13 07:25:59 51°13.858 2°55.62 343.8 6.2 340 9.4
2005-05-13 07:26:04 51°13.867 2°55.614 343.9 6.2 340 9.3
2005-05-13 07:26:09 51°13.875 2°55.609 343.7 6.5 339 9.2
2005-05-13 07:26:14 51°13.884 2°55.603 343.3 6.5 339 9.1
2005-05-13 07:26:19 51°13.893 2°55.598 343.2 6.5 339 9.2
2005-05-13 07:26:24 51°13.903 2°55.591 342.9 7.1 338 9.4
2005-05-13 07:26:29 51°13.912 2°55.585 342.6 7.1 338 9.4
2005-05-13 07:26:33 51°13.919 2°55.581 342.4 7.4 337 9.4
2005-05-13 07:26:39 51°13.93 2°55.573 342.4 7.4 337 9.4
2005-05-13 07:26:44 51°13.941 2°55.566 342.4 7.5 337 9.3
2005-05-13 07:26:49 51°13.95 2°55.559 342.3 7.5 337 9.6
2005-05-13 07:26:53 51°13.957 2°55.554 342.3 7.7 337 9.4
2005-05-13 07:26:59 51°13.969 2°55.546 342.2 7.8 337 9.2
2005-05-13 07:27:04 51°13.98 2°55.539 341.8 7.8 337 9.2
2005-05-13 07:27:08 51°13.989 2°55.532 341.9 8.3 337 9.1
2005-05-13 07:27:14 51°14.002 2°55.523 342.3 8.4 337 9.1
2005-05-13 07:27:19 51°14.012 2°55.517 342.3 8.5 337 9.1
2005-05-13 07:27:24 51°14.024 2°55.509 342 8.6 337 9.1
2005-05-13 07:27:29 51°14.035 2°55.501 342.1 8.6 338 9
2005-05-13 07:27:34 51°14.045 2°55.494 342.5 8.5 338 9.1
2005-05-13 07:27:39 51°14.055 2°55.488 342.3 8.5 337 9
2005-05-13 07:27:44 51°14.067 2°55.48 341.8 8.4 337 9.5
2005-05-13 07:27:49 51°14.077 2°55.473 341.4 8.4 336 9.5
2005-05-13 07:27:54 51°14.088 2°55.465 341.6 8.4 336 9
2005-05-13 07:27:59 51°14.098 2°55.458 341.5 8.4 336 9.1
2005-05-13 07:28:04 51°14.109 2°55.45 340.7 8.4 336 9.2
2005-05-13 07:28:09 51°14.119 2°55.443 340.5 8.3 336 9.4
2005-05-13 07:28:14 51°14.131 2°55.434 340.5 8.3 336 10.1
2005-05-13 07:28:19 51°14.14 2°55.427 340 8.3 334 10.3
2005-05-13 07:28:24 51°14.151 2°55.418 339.3 8.3 334 10.3
2005-05-13 07:28:28 51°14.159 2°55.411 338.1 8.3 332 10.3
2005-05-13 07:28:33 51°14.168 2°55.403 336.7 8.2 330 10.3
2005-05-13 07:28:39 51°14.18 2°55.391 334.8 8.2 328 10.2
2005-05-13 07:28:44 51°14.19 2°55.38 332.4 8.2 326 9.8
2005-05-13 07:28:48 51°14.197 2°55.371 330.1 8.2 326 9.8
2005-05-13 07:28:54 51°14.208 2°55.357 328 8.2 326 9.9
2005-05-13 07:28:59 51°14.217 2°55.345 325.8 8.2 326 10.2
2005-05-13 07:29:04 51°14.227 2°55.331 324 8.9 319 10
2005-05-13 07:29:09 51°14.235 2°55.319 322.9 9.1 318 9.9
2005-05-13 07:29:14 51°14.246 2°55.302 322.1 9.3 317 9.9
2005-05-13 07:29:19 51°14.254 2°55.288 320.7 9.7 314 9.9
2005-05-13 07:29:24 51°14.264 2°55.27 318.1 10 312 9.8
2005-05-13 07:29:28 51°14.271 2°55.256 315.8 10.1 310 10
2005-05-13 07:29:34 51°14.282 2°55.235 314.6 10.2 310 9.9
2005-05-13 07:29:39 51°14.29 2°55.218 313.5 10.4 308 9.8
2005-05-13 07:29:43 51°14.298 2°55.202 312.6 10.4 308 9.6
2005-05-13 07:29:49 51°14.307 2°55.18 311.7 10.6 305 9.7
2005-05-13 07:29:54 51°14.316 2°55.161 310.3 10.7 305 9.9
2005-05-13 07:29:59 51°14.324 2°55.141 309.2 10.7 305 10
2005-05-13 07:30:04 51°14.333 2°55.118 308.5 11.1 303 9.9
2005-05-13 07:30:08 51°14.34 2°55.101 308 11.1 303 9.9
2005-05-13 07:30:14 51°14.35 2°55.074 306.7 11.7 301 9.8
2005-05-13 07:30:19 51°14.357 2°55.052 305 11.8 299 9.6
2005-05-13 07:30:24 51°14.365 2°55.027 303.8 12.1 298 9.4
2005-05-13 07:30:28 51°14.372 2°55.008 304.1 12.3 298 9.2
2005-05-13 07:30:34 51°14.38 2°54.98 304.1 12.4 297 9.2
2005-05-13 07:30:39 51°14.387 2°54.954 302.9 12.6 294 9.3
2005-05-13 07:30:44 51°14.393 2°54.925 300.4 12.6 294 9.4
2005-05-13 07:30:48 51°14.398 2°54.903 296.8 13 287 9.7
2005-05-13 07:30:54 51°14.403 2°54.872 294.8 13.2 287 9.7
2005-05-13 07:30:58 51°14.408 2°54.847 294.6 13.2 288 9.8
2005-05-13 07:31:04 51°14.415 2°54.813 296.4 13.2 288 9.9
2005-05-13 07:31:08 51°14.419 2°54.79 296.7 13.5 287 9.8
2005-05-13 07:31:14 51°14.425 2°54.759 296.3 13.6 287 9.8
2005-05-13 07:31:19 51°14.431 2°54.731 295.5 13.6 288 9.7
2005-05-13 07:31:24 51°14.438 2°54.699 296.6 13.7 288 9.8
2005-05-13 07:31:29 51°14.444 2°54.673 297.1 13.7 288 9.9
2005-05-13 07:31:34 51°14.451 2°54.641 297.8 13.7 291 9.8
2005-05-13 07:31:39 51°14.457 2°54.616 298 13.8 290 9.8
2005-05-13 07:31:44 51°14.464 2°54.587 299.2 13.8 291 9.9
2005-05-13 07:31:48 51°14.471 2°54.562 299 13.9 292 9.9
2005-05-13 07:31:54 51°14.48 2°54.528 300.1 14 292 9.8
2005-05-13 07:31:59 51°14.486 2°54.503 300.4 13.8 291 9.8
2005-05-13 07:32:03 51°14.493 2°54.477 299.4 13.9 293 9.7
2005-05-13 07:32:09 51°14.501 2°54.444 300.8 13.9 293 9.8
2005-05-13 07:32:14 51°14.509 2°54.413 300.1 13.9 293 9.9
2005-05-13 07:32:19 51°14.516 2°54.387 299.9 13.9 293 9.9
2005-05-13 07:32:24 51°14.523 2°54.356 300.5 13.9 293 9.9
2005-05-13 07:32:28 51°14.529 2°54.333 299.6 14 291 9.9
2005-05-13 07:32:34 51°14.538 2°54.298 299.8 14 291 10
2005-05-13 07:32:39 51°14.545 2°54.269 299.4 14 291 9.9
2005-05-13 07:32:44 51°14.552 2°54.239 299.7 14.1 291 9.6
2005-05-13 07:32:49 51°14.559 2°54.214 299.4 14.1 291 9.8
2005-05-13 07:32:54 51°14.567 2°54.183 299.9 14 293 9.7
2005-05-13 07:32:59 51°14.573 2°54.157 299.7 14.1 293 9.7
2005-05-13 07:33:03 51°14.579 2°54.134 299.5 14.1 293 9.6
2005-05-13 07:33:08 51°14.588 2°54.102 300 14.1 294 9.8
2005-05-13 07:33:14 51°14.596 2°54.067 299.3 13.9 291 9.8
2005-05-13 07:33:19 51°14.602 2°54.041 299.8 14 293 10.1
2005-05-13 07:33:24 51°14.611 2°54.01 300 14 292 10.2
2005-05-13 07:33:29 51°14.618 2°53.981 299.8 14 292 10.2
2005-05-13 07:33:33 51°14.624 2°53.958 299.3 14.1 292 10.2
2005-05-13 07:33:39 51°14.633 2°53.927 299.7 14 294 10.3
2005-05-13 07:33:44 51°14.64 2°53.895 301 14 294 10.3
2005-05-13 07:33:48 51°14.646 2°53.872 299.7 14 293 10.1
2005-05-13 07:33:54 51°14.654 2°53.84 299.9 14 293 10.1
2005-05-13 07:33:59 51°14.661 2°53.811 300.9 14 293 9.8
2005-05-13 07:34:04 51°14.669 2°53.783 299.4 14 293 9.8
2005-05-13 07:34:09 51°14.676 2°53.754 300.3 14 293 9.4
2005-05-13 07:34:14 51°14.684 2°53.723 300.4 13.8 292 9.5
2005-05-13 07:34:19 51°14.691 2°53.699 300.3 13.7 293 9.5
2005-05-13 07:34:24 51°14.699 2°53.667 301.1 13.7 293 9.4
2005-05-13 07:34:29 51°14.706 2°53.641 301 13.9 292 9.4
2005-05-13 07:34:34 51°14.713 2°53.609 300 14 291 9.7
2005-05-13 07:34:39 51°14.719 2°53.581 298.6 14 291 9.9
2005-05-13 07:34:43 51°14.724 2°53.557 297.5 14 291 9.5
2005-05-13 07:34:48 51°14.73 2°53.528 296.8 14 288 9.4
2005-05-13 07:34:54 51°14.736 2°53.492 294.9 13.9 286 9.3
2005-05-13 07:34:59 51°14.742 2°53.461 293.8 13.9 286 9.4
2005-05-13 07:35:04 51°14.747 2°53.431 292.5 13.9 286 9.3
2005-05-13 07:35:08 51°14.75 2°53.407 293.1 13.9 286 9.9
2005-05-13 07:35:14 51°14.755 2°53.374 291.5 14.1 284 9.5
2005-05-13 07:35:19 51°14.76 2°53.34 291.7 14.1 284 9.4
2005-05-13 07:35:24 51°14.765 2°53.31 291 14.1 282 9.4
2005-05-13 07:35:29 51°14.768 2°53.282 289.7 14.1 282 9.4
2005-05-13 07:35:34 51°14.772 2°53.249 288.2 14.2 281 9.4
2005-05-13 07:35:39 51°14.776 2°53.22 288.9 14.3 282 9.2
2005-05-13 07:35:44 51°14.78 2°53.187 288.5 14.3 282 9.2
2005-05-13 07:35:48 51°14.783 2°53.162 287.1 14.3 280 9.1
2005-05-13 07:35:54 51°14.787 2°53.124 287.2 14.3 280 9.1
2005-05-13 07:35:59 51°14.79 2°53.096 286.5 14.2 279 9
2005-05-13 07:36:04 51°14.792 2°53.065 286.8 14.2 279 9
2005-05-13 07:36:09 51°14.795 2°53.034 285 14.3 279 9
2005-05-13 07:36:14 51°14.797 2°52.999 284.3 14.3 279 8.8
2005-05-13 07:36:19 51°14.798 2°52.97 283.5 14.3 279 8.7
2005-05-13 07:36:24 51°14.8 2°52.939 282.8 14.3 275 8.8
2005-05-13 07:36:28 51°14.801 2°52.91 281.8 14.3 275 8.8
2005-05-13 07:36:34 51°14.802 2°52.872 279.6 14.3 275 8.9
2005-05-13 07:36:39 51°14.803 2°52.843 279 14.5 272 9.1
2005-05-13 07:36:44 51°14.804 2°52.811 279.2 14.5 272 9.2
2005-05-13 07:36:48 51°14.804 2°52.783 278.7 14.3 272 9.3
2005-05-13 07:36:54 51°14.804 2°52.745 277.2 14.3 272 9.1
2005-05-13 07:36:59 51°14.805 2°52.713 277.3 14.3 272 9.1
2005-05-13 07:37:04 51°14.805 2°52.684 276.7 14.3 272 9.1
2005-05-13 07:37:09 51°14.806 2°52.652 276.7 14.5 272 9.2
2005-05-13 07:37:13 51°14.806 2°52.627 277.9 14.5 270 9.1
2005-05-13 07:37:19 51°14.807 2°52.589 276.8 14.5 271 9.2
2005-05-13 07:37:24 51°14.808 2°52.554 279.3 14.4 274 9.1
2005-05-13 07:37:29 51°14.809 2°52.525 278.6 14.4 275 9
2005-05-13 07:37:34 51°14.81 2°52.49 278.7 14.5 272 9
2005-05-13 07:37:39 51°14.811 2°52.462 279.4 14.4 272 9
2005-05-13 07:37:44 51°14.811 2°52.427 279.2 14.4 273 9
2005-05-13 07:37:49 51°14.812 2°52.398 278.4 14.4 274 9.1
2005-05-13 07:37:54 51°14.813 2°52.366 278.7 14.3 271 9.2
2005-05-13 07:37:59 51°14.814 2°52.335 278.7 14.4 272 9.4
2005-05-13 07:38:04 51°14.814 2°52.299 277.7 14.5 272 9.4
2005-05-13 07:38:09 51°14.814 2°52.271 278.5 14.5 275 9.4
2005-05-13 07:38:14 51°14.815 2°52.235 278.3 14.5 273 9.3
2005-05-13 07:38:19 51°14.816 2°52.206 278.7 14.5 272 9.3
2005-05-13 07:38:24 51°14.817 2°52.174 279.2 14.5 273 9.3
2005-05-13 07:38:29 51°14.818 2°52.142 279.7 14.6 273 9.5
2005-05-13 07:38:34 51°14.819 2°52.107 279.8 14.5 273 9.5
2005-05-13 07:38:39 51°14.821 2°52.078 279.3 14.5 273 9.5
2005-05-13 07:38:44 51°14.822 2°52.043 280.2 14.6 274 9.5
2005-05-13 07:38:48 51°14.823 2°52.017 280.1 14.6 272 9.6
2005-05-13 07:38:54 51°14.824 2°51.982 280.3 14.6 273 9.7
2005-05-13 07:38:59 51°14.825 2°51.95 280.7 14.6 273 9.6
2005-05-13 07:39:04 51°14.826 2°51.918 279.6 14.6 273 9.7
2005-05-13 07:39:08 51°14.826 2°51.892 279 14.5 270 9.8
2005-05-13 07:39:14 51°14.827 2°51.853 278.8 14.5 273 9.7
2005-05-13 07:39:19 51°14.828 2°51.822 278.6 14.5 272 9.8
2005-05-13 07:39:23 51°14.827 2°51.792 279.6 14.5 272 9.9
2005-05-13 07:39:29 51°14.828 2°51.757 277.6 14.6 270 9.8
2005-05-13 07:39:34 51°14.828 2°51.725 278.6 14.6 270 9.8
2005-05-13 07:39:39 51°14.83 2°51.693 277.6 14.6 270 9.9
2005-05-13 07:39:44 51°14.83 2°51.657 278.1 14.5 271 9.9
2005-05-13 07:39:49 51°14.83 2°51.624 280.6 14.5 271 9.8
2005-05-13 07:39:54 51°14.833 2°51.592 278.8 14.9 270 10
2005-05-13 07:39:59 51°14.832 2°51.563 281.2 14.7 273 10.2
2005-05-13 07:40:04 51°14.835 2°51.527 279.5 14.7 271 10.3
2005-05-13 07:40:08 51°14.835 2°51.501 281.1 14.6 275 10.3
2005-05-13 07:40:14 51°14.837 2°51.462 279.4 14.8 270 10.4
2005-05-13 07:40:19 51°14.838 2°51.433 281 14.8 270 10.4
2005-05-13 07:40:24 51°14.839 2°51.401 281.2 14.7 272 10.5
2005-05-13 07:40:29 51°14.841 2°51.367 280.7 14.8 274 10.4
2005-05-13 07:40:34 51°14.842 2°51.332 281.3 14.8 274 10.5
2005-05-13 07:40:38 51°14.844 2°51.306 282 14.7 275 10.5
2005-05-13 07:40:44 51°14.844 2°51.271 281.7 14.7 272 10.6
2005-05-13 07:40:49 51°14.844 2°51.238 279.6 14.7 272 10.7
2005-05-13 07:40:53 51°14.842 2°51.209 275.3 14.7 268 10.6
2005-05-13 07:40:59 51°14.84 2°51.173 272.1 14.7 268 10.6
2005-05-13 07:41:04 51°14.835 2°51.139 269.8 14.7 268 10.7
2005-05-13 07:41:09 51°14.831 2°51.11 267 14.7 261 10.6
2005-05-13 07:41:14 51°14.825 2°51.076 262 14.7 256 10.7
2005-05-13 07:41:20 51°14.817 2°51.045 259.2 14.7 256 10.7
2005-05-13 07:41:23 51°14.812 2°51.024 256.4 13.8 250 10.8
2005-05-13 07:41:29 51°14.804 2°50.995 254 13.6 250 10.8
2005-05-13 07:41:34 51°14.796 2°50.966 249.7 13.6 250 10.9
2005-05-13 07:41:39 51°14.79 2°50.943 249.9 13.6 250 10.8
2005-05-13 07:41:44 51°14.786 2°50.917 254.1 13.6 250 10.8
2005-05-13 07:41:48 51°14.785 2°50.899 259.9 10.7 258 10.9
2005-05-13 07:41:53 51°14.785 2°50.878 269.8 10.7 258 11
2005-05-13 07:41:59 51°14.784 2°50.857 274.1 8.9 265 11.1
2005-05-13 07:42:03 51°14.784 2°50.843 278.4 8.2 271 11.2
2005-05-13 07:42:09 51°14.785 2°50.823 282.1 7.8 270 11.2
2005-05-13 07:42:12 51°14.785 2°50.812 284 7.1 272 11.2
2005-05-13 07:42:19 51°14.785 2°50.793 285.2 7.1 272 11.1
2005-05-13 07:42:24 51°14.785 2°50.778 283.8 6.3 272 10.9
2005-05-13 07:42:29 51°14.784 2°50.767 282.1 5.8 269 11
2005-05-13 07:42:34 51°14.783 2°50.754 279.3 5.9 267 11.2
2005-05-13 07:42:39 51°14.782 2°50.744 276.1 5.2 263 11.2
2005-05-13 07:42:44 51°14.78 2°50.733 272.7 5.2 263 11.3
2005-05-13 07:42:48 51°14.779 2°50.725 268.1 4.6 256 11.4
2005-05-13 07:42:55 51°14.776 2°50.713 263.6 4.6 256 11.5
2005-05-13 07:42:59 51°14.775 2°50.706 261 4.5 250 11.6
2005-05-13 07:43:04 51°14.772 2°50.696 257.9 4.5 250 11.4
2005-05-13 07:43:09 51°14.77 2°50.688 256 4.4 249 11.3
2005-05-13 07:43:14 51°14.768 2°50.679 255.1 4.4 249 11.4
2005-05-13 07:43:19 51°14.766 2°50.671 255.1 4.4 249 11.4
2005-05-13 07:43:24 51°14.763 2°50.663 255.5 4.2 248 11.4
2005-05-13 07:43:28 51°14.761 2°50.655 256.7 4.2 248 11.4
2005-05-13 07:43:34 51°14.758 2°50.645 257.4 4.2 248 11.3
2005-05-13 07:43:39 51°14.757 2°50.637 257.9 4.1 249 11.4
2005-05-13 07:43:44 51°14.755 2°50.629 259.6 4.1 249 11.4
2005-05-13 07:43:48 51°14.752 2°50.622 261.2 4.1 251 11.3
2005-05-13 07:43:54 51°14.75 2°50.611 261.2 4.1 251 11.3
2005-05-13 07:43:59 51°14.748 2°50.603 261.9 4.1 251 11.3
2005-05-13 07:44:04 51°14.746 2°50.596 263 4.1 251 11.4
2005-05-13 07:44:09 51°14.745 2°50.588 263.5 3.9 247 11.4
2005-05-13 07:44:14 51°14.743 2°50.58 265 3.9 248 11.3
2005-05-13 07:44:19 51°14.741 2°50.572 266 3.9 251 11.3
2005-05-13 07:44:24 51°14.739 2°50.563 266.5 3.8 251 11.2
2005-05-13 07:44:29 51°14.738 2°50.556 267.2 3.8 254 11.2
2005-05-13 07:44:34 51°14.737 2°50.548 268.9 3.7 249 11.3
2005-05-13 07:44:39 51°14.735 2°50.541 270.6 3.8 252 11.2
2005-05-13 07:44:44 51°14.734 2°50.532 271.6 3.8 248 11.1
2005-05-13 07:44:49 51°14.733 2°50.525 273 3.8 253 11.2
2005-05-13 07:44:54 51°14.731 2°50.516 274.1 3.8 252 11.2
2005-05-13 07:44:59 51°14.73 2°50.508 273.2 3.7 256 11.2
2005-05-13 07:45:04 51°14.728 2°50.499 271.8 3.9 253 11.3
2005-05-13 07:45:08 51°14.726 2°50.492 269.1 4.2 251 11.5
2005-05-13 07:45:14 51°14.723 2°50.482 264.7 4.2 251 11.3
2005-05-13 07:45:19 51°14.721 2°50.475 259.6 4.2 250 11.3
2005-05-13 07:45:24 51°14.719 2°50.465 256.1 4.2 250 11.3
2005-05-13 07:45:29 51°14.716 2°50.457 254 4.1 247 11.3
2005-05-13 07:45:34 51°14.714 2°50.448 252.8 4.2 246 11.2
2005-05-13 07:45:39 51°14.712 2°50.441 251.6 4.1 243 11.4
2005-05-13 07:45:44 51°14.709 2°50.433 251.3 4.1 242 11.4
2005-05-13 07:45:49 51°14.706 2°50.424 251.1 4.1 242 11.3
2005-05-13 07:45:54 51°14.703 2°50.415 250.6 4.1 243 11.3
2005-05-13 07:45:59 51°14.7 2°50.407 250.5 4.1 243 11.3
2005-05-13 07:46:03 51°14.698 2°50.4 250.5 4.3 245 11.3
2005-05-13 07:46:08 51°14.696 2°50.391 250.7 4.3 245 11.4
2005-05-13 07:46:14 51°14.693 2°50.381 251.1 4.4 243 11.4
2005-05-13 07:46:19 51°14.69 2°50.373 251.8 4.4 246 11.3
2005-05-13 07:46:24 51°14.688 2°50.363 251.6 4.4 245 11.1
2005-05-13 07:46:29 51°14.685 2°50.355 251.2 4.6 245 11
2005-05-13 07:46:33 51°14.683 2°50.347 251.5 4.6 245 11
2005-05-13 07:46:40 51°14.68 2°50.336 251.4 4.6 245 11
2005-05-13 07:46:43 51°14.678 2°50.33 251.7 4.6 245 11.2
2005-05-13 07:46:48 51°14.676 2°50.321 252.5 4.6 245 11.2
2005-05-13 07:46:54 51°14.672 2°50.309 252.2 4.6 244 11.4
2005-05-13 07:46:59 51°14.67 2°50.3 253 4.6 244 11.6
2005-05-13 07:47:04 51°14.666 2°50.289 253.9 4.6 246 11.5
2005-05-13 07:47:08 51°14.664 2°50.281 254 4.7 244 11.6
2005-05-13 07:47:14 51°14.661 2°50.27 254.8 4.6 246 11.5
2005-05-13 07:47:19 51°14.659 2°50.261 255.6 4.6 247 11.5
2005-05-13 07:47:24 51°14.656 2°50.251 256.5 4.6 247 11.4
2005-05-13 07:47:28 51°14.654 2°50.244 256.9 4.6 252 11.2
2005-05-13 07:47:34 51°14.652 2°50.234 256.9 4.6 252 11.2
2005-05-13 07:47:39 51°14.649 2°50.223 258 4.6 252 11.2
2005-05-13 07:47:44 51°14.648 2°50.214 258.3 4.6 251 11.3
2005-05-13 07:47:48 51°14.645 2°50.207 259.1 4.6 248 11.3
2005-05-13 07:47:54 51°14.643 2°50.195 259.1 4.5 253 11.2
2005-05-13 07:47:59 51°14.641 2°50.187 259.1 4.6 248 11.3
2005-05-13 07:48:04 51°14.639 2°50.176 259.6 4.6 248 11.3
2005-05-13 07:48:08 51°14.637 2°50.169 259.9 4.5 251 11.2
2005-05-13 07:48:14 51°14.635 2°50.158 260 4.4 249 11.3
2005-05-13 07:48:19 51°14.633 2°50.15 260.7 4.4 253 11.4
2005-05-13 07:48:24 51°14.631 2°50.141 260.7 4.3 252 11.3
2005-05-13 07:48:28 51°14.629 2°50.132 261.1 4.3 252 11.4
2005-05-13 07:48:34 51°14.627 2°50.122 261.8 4.2 248 11.4
2005-05-13 07:48:39 51°14.625 2°50.114 261.7 4.2 252 11.3
2005-05-13 07:48:43 51°14.623 2°50.106 261.3 4.2 250 11.3
2005-05-13 07:48:49 51°14.621 2°50.097 261.2 4.2 250 11.3
2005-05-13 07:48:54 51°14.619 2°50.088 260.6 4.2 250 11.3
2005-05-13 07:48:59 51°14.617 2°50.081 259.2 4 249 11.3
2005-05-13 07:49:04 51°14.615 2°50.072 258.2 4 250 11.2
2005-05-13 07:49:08 51°14.614 2°50.065 256.1 4 250 11.4
2005-05-13 07:49:14 51°14.611 2°50.057 255.1 3.8 240 11.4
2005-05-13 07:49:19 51°14.608 2°50.051 254.1 4 246 11
2005-05-13 07:49:23 51°14.607 2°50.044 250.8 3.9 247 10.9
2005-05-13 07:49:29 51°14.604 2°50.035 248.8 3.9 247 10.9
2005-05-13 07:49:32 51°14.602 2°50.03 247.7 3.8 240 10.8
2005-05-13 07:49:39 51°14.599 2°50.02 245 3.8 240 11
2005-05-13 07:49:44 51°14.596 2°50.012 243.2 3.8 244 11.2
2005-05-13 07:49:48 51°14.594 2°50.006 241.7 3.7 238 11.4
2005-05-13 07:49:54 51°14.591 2°49.998 239.6 3.7 236 11.5
2005-05-13 07:49:59 51°14.588 2°49.992 237.5 3.6 237 11.6
2005-05-13 07:50:04 51°14.585 2°49.985 235.2 3.6 237 11.6
2005-05-13 07:50:09 51°14.582 2°49.978 234.1 3.5 231 11.6
2005-05-13 07:50:14 51°14.579 2°49.972 232.2 3.6 235 11.5
2005-05-13 07:50:19 51°14.577 2°49.966 229.3 3.6 233 11.5
2005-05-13 07:50:24 51°14.573 2°49.96 227.1 3.5 229 11.5
2005-05-13 07:50:28 51°14.57 2°49.956 225 3.5 229 11.3
2005-05-13 07:50:34 51°14.566 2°49.949 222.7 3.6 231 11.3
2005-05-13 07:50:39 51°14.564 2°49.943 220.5 3.6 231 11.4
2005-05-13 07:50:43 51°14.561 2°49.939 218.6 3.5 228 11.4
2005-05-13 07:50:49 51°14.557 2°49.932 216.2 3.5 228 11.4
2005-05-13 07:50:54 51°14.554 2°49.927 214.3 3.3 223 11.4
2005-05-13 07:50:59 51°14.55 2°49.921 212.6 3.3 223 11.3
2005-05-13 07:51:04 51°14.547 2°49.916 210.4 3.3 223 11.3
2005-05-13 07:51:09 51°14.544 2°49.912 209.1 3.3 220 11.2
2005-05-13 07:51:14 51°14.54 2°49.907 206.4 3.3 222 11.1
2005-05-13 07:51:19 51°14.537 2°49.902 203.7 3.3 222 11.2
2005-05-13 07:51:24 51°14.533 2°49.897 202.5 3.3 224 11.2
2005-05-13 07:51:29 51°14.53 2°49.893 200.2 3.3 224 11.3
2005-05-13 07:51:34 51°14.527 2°49.889 197.8 3.2 219 11.3
2005-05-13 07:51:39 51°14.523 2°49.884 196.6 3.2 221 11.2
2005-05-13 07:51:44 51°14.52 2°49.879 195 3.1 216 11.3
2005-05-13 07:51:49 51°14.516 2°49.876 193.9 3.1 216 11.2
2005-05-13 07:51:54 51°14.513 2°49.872 192.7 3.1 215 11.2
2005-05-13 07:51:59 51°14.51 2°49.868 192.1 3.2 219 11.1
2005-05-13 07:52:04 51°14.506 2°49.863 190.7 3.2 219 11.2
2005-05-13 07:52:08 51°14.503 2°49.86 189.2 3.1 216 11.2
2005-05-13 07:52:14 51°14.499 2°49.855 188.2 3 215 11.2
2005-05-13 07:52:19 51°14.496 2°49.852 186.4 3 215 11.1
2005-05-13 07:52:24 51°14.493 2°49.848 185.7 3 215 11.2
2005-05-13 07:52:29 51°14.49 2°49.845 185.2 2.9 217 11.1
2005-05-13 07:52:34 51°14.487 2°49.84 184.6 2.8 215 11.3
2005-05-13 07:52:39 51°14.484 2°49.837 183.8 2.9 216 11.2
2005-05-13 07:52:44 51°14.481 2°49.833 183.1 3 216 11.2
2005-05-13 07:52:48 51°14.478 2°49.83 182.9 2.8 214 11.2
2005-05-13 07:52:54 51°14.474 2°49.826 182.1 2.9 216 11.1
2005-05-13 07:52:59 51°14.472 2°49.822 181.9 2.8 216 11.1
2005-05-13 07:53:03 51°14.469 2°49.82 182.6 2.7 214 11.1
2005-05-13 07:53:09 51°14.466 2°49.816 181.9 2.8 219 11.1
2005-05-13 07:53:14 51°14.462 2°49.811 181.7 2.8 219 11.1
2005-05-13 07:53:19 51°14.459 2°49.808 182.2 2.7 218 11.1
2005-05-13 07:53:24 51°14.456 2°49.804 182.3 2.7 218 11.2
2005-05-13 07:53:29 51°14.454 2°49.801 182.5 2.8 217 11.1
2005-05-13 07:53:34 51°14.45 2°49.796 182.6 2.9 219 11.2
2005-05-13 07:53:39 51°14.448 2°49.793 182.9 2.7 217 11.2
2005-05-13 07:53:44 51°14.445 2°49.789 183.4 2.8 220 11.1
2005-05-13 07:53:49 51°14.442 2°49.785 183.5 2.8 220 11.1
2005-05-13 07:53:54 51°14.439 2°49.781 184.2 2.8 219 11.1
2005-05-13 07:53:59 51°14.436 2°49.778 184.4 2.7 218 11.1
2005-05-13 07:54:03 51°14.434 2°49.775 183.9 2.7 218 11.1
2005-05-13 07:54:09 51°14.431 2°49.77 183.7 2.7 218 11.1
2005-05-13 07:54:14 51°14.428 2°49.766 183.6 2.7 220 11
2005-05-13 07:54:19 51°14.425 2°49.763 183.7 2.7 220 11.1
2005-05-13 07:54:24 51°14.422 2°49.759 183.6 2.7 220 11.1
2005-05-13 07:54:29 51°14.42 2°49.756 183.3 2.7 219 10.9
2005-05-13 07:54:34 51°14.417 2°49.752 183.5 2.7 222 11
2005-05-13 07:54:39 51°14.414 2°49.748 183.6 2.7 222 11
2005-05-13 07:54:44 51°14.411 2°49.744 183.7 2.7 222 10.9
2005-05-13 07:54:49 51°14.409 2°49.74 183.8 2.7 222 11
2005-05-13 07:54:54 51°14.406 2°49.737 184.1 2.6 219 11
2005-05-13 07:54:59 51°14.403 2°49.733 184.1 2.6 219 11
2005-05-13 07:55:04 51°14.4 2°49.73 184.2 2.6 219 11.1
2005-05-13 07:55:08 51°14.397 2°49.727 184.5 2.6 219 11.1
2005-05-13 07:55:14 51°14.394 2°49.723 184.8 2.7 219 11
2005-05-13 07:55:19 51°14.391 2°49.719 185 2.6 214 10.9
2005-05-13 07:55:24 51°14.388 2°49.715 185.8 2.6 214 10.9
2005-05-13 07:55:28 51°14.385 2°49.712 185.3 2.9 220 11
2005-05-13 07:55:34 51°14.381 2°49.707 185.2 2.9 218 11
2005-05-13 07:55:39 51°14.378 2°49.703 185.8 2.9 218 10.9
2005-05-13 07:55:43 51°14.375 2°49.7 185.6 3.1 216 10.9
2005-05-13 07:55:48 51°14.372 2°49.696 185.4 3.1 214 10.9
2005-05-13 07:55:54 51°14.368 2°49.692 185.6 3.1 214 10.9
2005-05-13 07:55:59 51°14.364 2°49.688 186.8 3.2 215 11
2005-05-13 07:56:04 51°14.36 2°49.684 187.5 3.2 215 10.9
2005-05-13 07:56:08 51°14.357 2°49.68 187.9 3.2 216 10.9
2005-05-13 07:56:14 51°14.353 2°49.676 189.5 3.2 216 10.9
2005-05-13 07:56:19 51°14.35 2°49.671 190.7 3.3 217 10.9
2005-05-13 07:56:24 51°14.345 2°49.667 191.6 3.3 214 10.9
2005-05-13 07:56:28 51°14.342 2°49.664 193.8 3.4 215 10.9
2005-05-13 07:56:35 51°14.337 2°49.658 194.9 3.5 216 10.8
2005-05-13 07:56:39 51°14.334 2°49.654 196.6 3.5 216 10.9
2005-05-13 07:56:44 51°14.33 2°49.65 198.5 3.5 218 10.8
2005-05-13 07:56:48 51°14.327 2°49.646 198.8 3.5 218 10.8
2005-05-13 07:56:54 51°14.322 2°49.64 199.5 3.6 215 10.8
2005-05-13 07:56:59 51°14.318 2°49.636 199.3 3.7 217 10.9
2005-05-13 07:57:04 51°14.314 2°49.631 198.8 3.7 216 10.8
2005-05-13 07:57:08 51°14.31 2°49.627 198.2 3.7 215 10.7
2005-05-13 07:57:14 51°14.305 2°49.622 198 3.8 213 10.7
2005-05-13 07:57:19 51°14.301 2°49.617 197 3.8 213 10.7
2005-05-13 07:57:24 51°14.296 2°49.612 196.2 3.8 216 10.7
2005-05-13 07:57:28 51°14.293 2°49.608 196.2 3.8 216 10.6
2005-05-13 07:57:34 51°14.287 2°49.602 195.5 3.8 212 10.7
2005-05-13 07:57:39 51°14.283 2°49.599 195.2 3.9 214 10.6
2005-05-13 07:57:44 51°14.279 2°49.594 195 3.9 213 10.7
2005-05-13 07:57:49 51°14.274 2°49.589 194.9 3.9 213 10.6
2005-05-13 07:57:54 51°14.269 2°49.584 195.3 3.9 215 10.5
2005-05-13 07:57:59 51°14.265 2°49.579 195.3 3.9 214 10.5
2005-05-13 07:58:04 51°14.26 2°49.574 195.6 3.9 214 10.5
2005-05-13 07:58:08 51°14.256 2°49.571 196 3.8 212 10.5
2005-05-13 07:58:14 51°14.251 2°49.565 196.6 3.8 212 10.4
2005-05-13 07:58:19 51°14.247 2°49.56 196.8 3.8 212 10.4
2005-05-13 07:58:24 51°14.242 2°49.555 197.4 4 214 10.4
2005-05-13 07:58:29 51°14.237 2°49.55 198 4 213 10.5
2005-05-13 07:58:34 51°14.233 2°49.545 198.3 4 216 10.4
2005-05-13 07:58:39 51°14.229 2°49.54 198.6 4 216 10.5
2005-05-13 07:58:44 51°14.223 2°49.534 198.9 4 215 10.5
2005-05-13 07:58:48 51°14.22 2°49.53 199.3 4 215 10.5
2005-05-13 07:58:54 51°14.215 2°49.524 199.9 4 214 10.5
2005-05-13 07:58:59 51°14.211 2°49.519 200.1 4 215 10.5
2005-05-13 07:59:04 51°14.207 2°49.514 200.8 4 215 10.4
2005-05-13 07:59:08 51°14.203 2°49.509 201.3 4 215 10.4
2005-05-13 07:59:14 51°14.197 2°49.503 201.7 4 216 10.3
2005-05-13 07:59:19 51°14.193 2°49.498 202.9 4 216 10.2
2005-05-13 07:59:24 51°14.188 2°49.492 202.9 4 216 10.2
2005-05-13 07:59:29 51°14.184 2°49.488 203.7 4 219 10
2005-05-13 07:59:34 51°14.18 2°49.482 203.9 4 219 10.1
2005-05-13 07:59:39 51°14.176 2°49.477 204.8 4 219 10
2005-05-13 07:59:44 51°14.171 2°49.471 205.2 3.9 220 10.1
2005-05-13 07:59:49 51°14.167 2°49.467 205.6 3.9 216 10.2
2005-05-13 07:59:54 51°14.163 2°49.461 206 3.9 216 10.2
2005-05-13 07:59:59 51°14.159 2°49.457 206.8 3.9 216 10.1
2005-05-13 08:00:04 51°14.155 2°49.451 206.9 4 223 10.2
2005-05-13 08:00:09 51°14.151 2°49.446 208 3.8 219 10.2
2005-05-13 08:00:14 51°14.147 2°49.441 207.6 3.8 219 10
2005-05-13 08:00:19 51°14.143 2°49.435 207.8 3.7 218 9.9
2005-05-13 08:00:24 51°14.138 2°49.429 208.2 3.8 221 9.9
2005-05-13 08:00:29 51°14.134 2°49.424 208.3 3.8 221 10
2005-05-13 08:00:34 51°14.131 2°49.418 208.9 3.8 222 10
2005-05-13 08:00:39 51°14.127 2°49.412 209.6 3.8 222 9.9
2005-05-13 08:00:44 51°14.123 2°49.407 209.9 3.9 222 9.9
2005-05-13 08:00:48 51°14.12 2°49.402 210.9 3.9 222 9.9
2005-05-13 08:00:54 51°14.115 2°49.395 211.5 3.9 222 10.1
2005-05-13 08:00:59 51°14.111 2°49.39 211.9 3.9 223 9.9
2005-05-13 08:01:04 51°14.107 2°49.383 212 3.8 223 9.9
2005-05-13 08:01:08 51°14.104 2°49.379 213.3 3.8 220 9.8
2005-05-13 08:01:14 51°14.1 2°49.372 213.5 3.8 222 9.9
2005-05-13 08:01:19 51°14.096 2°49.366 212.6 3.7 219 9.9
2005-05-13 08:01:24 51°14.092 2°49.36 214.1 3.7 219 9.7
2005-05-13 08:01:28 51°14.089 2°49.355 213.7 3.7 225 9.8
2005-05-13 08:01:34 51°14.084 2°49.348 213.6 3.6 218 9.8
2005-05-13 08:01:39 51°14.081 2°49.343 214.9 3.7 223 9.5
2005-05-13 08:01:44 51°14.077 2°49.337 214.3 3.8 226 9.6
2005-05-13 08:01:49 51°14.074 2°49.331 214.1 3.6 222 9.8
2005-05-13 08:01:54 51°14.069 2°49.325 215.4 3.7 227 9.8
2005-05-13 08:01:59 51°14.066 2°49.319 214.9 3.6 223 9.9
2005-05-13 08:02:04 51°14.062 2°49.312 215.8 3.7 223 9.9
2005-05-13 08:02:08 51°14.059 2°49.308 217 3.8 220 9.7
2005-05-13 08:02:14 51°14.055 2°49.301 217.4 3.8 220 9.5
2005-05-13 08:02:19 51°14.051 2°49.294 217.7 3.7 225 9.7
2005-05-13 08:02:24 51°14.048 2°49.289 219.5 3.6 224 9.5
2005-05-13 08:02:28 51°14.045 2°49.284 218.7 3.7 228 9.6
2005-05-13 08:02:34 51°14.041 2°49.276 219.1 3.8 229 9.7
2005-05-13 08:02:39 51°14.038 2°49.271 220.6 3.8 228 9.7
2005-05-13 08:02:44 51°14.035 2°49.265 220.4 3.8 233 9.8
2005-05-13 08:02:48 51°14.032 2°49.26 220.8 3.6 225 9.8
2005-05-13 08:02:54 51°14.028 2°49.253 222 3.7 230 9.8
2005-05-13 08:02:59 51°14.025 2°49.246 222 3.6 228 9.9
2005-05-13 08:03:04 51°14.021 2°49.24 222.8 3.6 230 9.8
2005-05-13 08:03:09 51°14.018 2°49.234 223.7 3.6 231 9.8
2005-05-13 08:03:14 51°14.015 2°49.227 224 3.7 229 9.8
2005-05-13 08:03:19 51°14.012 2°49.222 224.8 3.6 228 9.7
2005-05-13 08:03:24 51°14.008 2°49.214 224.5 3.7 234 9.7
2005-05-13 08:03:29 51°14.005 2°49.208 225.4 3.7 234 9.8
2005-05-13 08:03:34 51°14.003 2°49.203 226.2 3.6 232 9.7
2005-05-13 08:03:39 51°13.999 2°49.197 226.4 3.6 229 9.6
2005-05-13 08:03:44 51°13.996 2°49.19 226.4 3.6 233 9.7
2005-05-13 08:03:49 51°13.993 2°49.184 227.1 3.6 233 9.6
2005-05-13 08:03:54 51°13.99 2°49.177 227.4 3.6 235 9.7
2005-05-13 08:03:59 51°13.987 2°49.171 228 3.6 235 9.7
2005-05-13 08:04:04 51°13.984 2°49.164 228.7 3.7 234 9.7
2005-05-13 08:04:09 51°13.981 2°49.158 229.7 3.6 229 9.6
2005-05-13 08:04:14 51°13.978 2°49.152 230.2 3.5 235 9.6
2005-05-13 08:04:18 51°13.975 2°49.147 231.3 3.5 235 9.7
2005-05-13 08:04:24 51°13.972 2°49.139 232.2 3.6 237 9.7
2005-05-13 08:04:28 51°13.969 2°49.134 233.7 3.6 235 9.6
2005-05-13 08:04:34 51°13.966 2°49.125 234.3 3.6 239 9.6
2005-05-13 08:04:40 51°13.963 2°49.118 234.5 3.6 239 9.6
2005-05-13 08:04:44 51°13.961 2°49.112 235.1 3.6 239 9.6
2005-05-13 08:04:49 51°13.958 2°49.107 235.1 3.5 232 9.6
2005-05-13 08:04:54 51°13.955 2°49.1 235.4 3.4 232 9.6
2005-05-13 08:04:59 51°13.953 2°49.094 234.4 3.6 234 9.5
2005-05-13 08:05:04 51°13.95 2°49.087 233.8 3.5 235 9.6
2005-05-13 08:05:09 51°13.947 2°49.081 233.8 3.5 235 9.5
2005-05-13 08:05:14 51°13.944 2°49.074 233.5 3.6 236 9.6
2005-05-13 08:05:19 51°13.941 2°49.068 233.1 3.6 235 9.7
2005-05-13 08:05:24 51°13.938 2°49.061 232.4 3.5 232 9.7
2005-05-13 08:05:28 51°13.936 2°49.056 231.8 3.5 232 9.7
2005-05-13 08:05:34 51°13.932 2°49.048 230.8 3.6 235 9.6
2005-05-13 08:05:39 51°13.929 2°49.042 229.8 3.6 235 9.6
2005-05-13 08:05:44 51°13.926 2°49.035 228.6 3.6 233 9.5
2005-05-13 08:05:49 51°13.923 2°49.03 228.8 3.6 233 9.4
2005-05-13 08:05:54 51°13.92 2°49.023 227.1 3.7 237 9.5
2005-05-13 08:05:59 51°13.917 2°49.017 227.1 3.7 237 9.5
2005-05-13 08:06:04 51°13.913 2°49.01 226.4 3.6 231 9.4
2005-05-13 08:06:08 51°13.911 2°49.005 224.8 3.6 232 9.5
2005-05-13 08:06:14 51°13.907 2°48.998 224 3.7 230 9.6
2005-05-13 08:06:19 51°13.904 2°48.992 223.6 3.6 232 9.6
2005-05-13 08:06:24 51°13.901 2°48.986 222.6 3.6 225 9.6
2005-05-13 08:06:29 51°13.898 2°48.98 222 3.6 231 9.6
2005-05-13 08:06:34 51°13.894 2°48.974 220.6 3.6 228 9.6
2005-05-13 08:06:39 51°13.89 2°48.968 220.1 3.6 228 9.5
2005-05-13 08:06:44 51°13.887 2°48.962 218.5 3.6 229 9.5
2005-05-13 08:06:48 51°13.884 2°48.958 217.7 3.6 227 9.6
2005-05-13 08:06:55 51°13.88 2°48.95 216.8 3.7 230 9.5
2005-05-13 08:06:59 51°13.878 2°48.945 217 3.7 230 9.5
2005-05-13 08:07:03 51°13.875 2°48.94 217.7 3.5 225 9.5
2005-05-13 08:07:09 51°13.871 2°48.934 218.5 3.6 232 9.5
2005-05-13 08:07:14 51°13.868 2°48.927 218.7 3.5 225 9.5
2005-05-13 08:07:19 51°13.865 2°48.922 219.9 3.5 225 9.5
2005-05-13 08:07:24 51°13.862 2°48.915 220.4 3.5 226 9.6
2005-05-13 08:07:28 51°13.859 2°48.911 221.7 3.5 230 9.6
2005-05-13 08:07:34 51°13.855 2°48.903 223.2 3.5 230 9.5
2005-05-13 08:07:39 51°13.852 2°48.897 223.3 3.6 233 9.4
2005-05-13 08:07:44 51°13.85 2°48.891 224.8 3.4 231 9.5
2005-05-13 08:07:49 51°13.847 2°48.886 226.7 3.4 230 9.4
2005-05-13 08:07:54 51°13.844 2°48.88 228.6 3.4 232 9.4
2005-05-13 08:07:59 51°13.841 2°48.874 229.3 3.4 234 9.5
2005-05-13 08:08:04 51°13.838 2°48.867 231.5 3.4 233 9.6
2005-05-13 08:08:09 51°13.836 2°48.861 232.6 3.4 233 9.5
2005-05-13 08:08:14 51°13.833 2°48.854 233.8 3.4 240 9.5
2005-05-13 08:08:18 51°13.831 2°48.85 236.1 3.4 240 9.5
2005-05-13 08:08:24 51°13.828 2°48.842 237.4 3.5 240 9.5
2005-05-13 08:08:28 51°13.826 2°48.837 239.6 3.4 235 9.6
2005-05-13 08:08:34 51°13.823 2°48.829 242.9 3.4 241 9.5
2005-05-13 08:08:39 51°13.821 2°48.823 243.2 3.3 237 9.5
2005-05-13 08:08:43 51°13.819 2°48.818 246 3.4 240 9.4
2005-05-13 08:08:49 51°13.816 2°48.81 248.3 3.3 242 9.3
2005-05-13 08:08:54 51°13.814 2°48.803 250.1 3.3 241 9.4
2005-05-13 08:08:59 51°13.812 2°48.797 252.7 3.3 245 9.5
2005-05-13 08:09:04 51°13.81 2°48.79 254.9 3.3 243 9.7
2005-05-13 08:09:08 51°13.808 2°48.785 257.5 3.3 248 9.5
2005-05-13 08:09:14 51°13.807 2°48.777 259.3 3.2 249 9.5
2005-05-13 08:09:19 51°13.805 2°48.771 261.1 3.2 248 9.4
2005-05-13 08:09:23 51°13.804 2°48.766 263.4 3.2 250 9.5
2005-05-13 08:09:28 51°13.803 2°48.759 265.6 3.2 250 9.6
2005-05-13 08:09:34 51°13.8 2°48.752 268.1 3.2 243 9.5
2005-05-13 08:09:39 51°13.799 2°48.745 269.8 3 258 9.5
2005-05-13 08:09:44 51°13.798 2°48.738 272.2 3.1 255 9.5
2005-05-13 08:09:49 51°13.797 2°48.732 273.9 3.1 255 9.7
2005-05-13 08:09:54 51°13.795 2°48.726 276.3 3.1 250 9.6
2005-05-13 08:09:59 51°13.794 2°48.719 278.5 3.1 250 9.6
2005-05-13 08:10:03 51°13.794 2°48.714 280.1 3 254 9.6
2005-05-13 08:10:09 51°13.792 2°48.707 281.9 3 253 9.6
2005-05-13 08:10:14 51°13.791 2°48.7 284.2 3 253 9.6
2005-05-13 08:10:19 51°13.791 2°48.695 286.1 3 253 9.8
2005-05-13 08:10:24 51°13.79 2°48.688 287.6 2.8 259 9.7
2005-05-13 08:10:29 51°13.789 2°48.683 289.9 2.8 260 9.8
2005-05-13 08:10:34 51°13.788 2°48.676 291.9 2.8 260 9.8
2005-05-13 08:10:39 51°13.787 2°48.671 294.4 2.8 259 9.8
2005-05-13 08:10:44 51°13.787 2°48.664 296.1 2.7 263 9.7
2005-05-13 08:10:49 51°13.786 2°48.659 297.1 2.7 258 9.7
2005-05-13 08:10:55 51°13.785 2°48.651 297.9 2.7 258 9.8
2005-05-13 08:10:59 51°13.785 2°48.647 299.7 2.6 258 9.8
2005-05-13 08:11:04 51°13.784 2°48.641 301.6 2.7 259 9.8
2005-05-13 08:11:08 51°13.783 2°48.636 302.8 2.7 261 9.8
2005-05-13 08:11:14 51°13.783 2°48.629 303.6 2.7 261 9.7
2005-05-13 08:11:19 51°13.782 2°48.623 304.8 2.7 261 9.9
2005-05-13 08:11:24 51°13.782 2°48.618 305.7 2.6 260 10
2005-05-13 08:11:29 51°13.781 2°48.612 306.6 2.8 262 9.9
2005-05-13 08:11:35 51°13.781 2°48.605 307.8 2.8 261 9.7
2005-05-13 08:11:39 51°13.78 2°48.6 309.1 2.6 265 9.8
2005-05-13 08:11:44 51°13.78 2°48.594 310.2 2.6 266 9.8
2005-05-13 08:11:49 51°13.779 2°48.588 310.8 2.9 265 9.9
2005-05-13 08:11:54 51°13.779 2°48.582 312.7 2.6 265 10
2005-05-13 08:11:59 51°13.779 2°48.575 314.6 2.7 268 10
2005-05-13 08:12:04 51°13.779 2°48.57 316 2.7 268 10
2005-05-13 08:12:09 51°13.779 2°48.564 317.3 2.5 270 10
2005-05-13 08:12:14 51°13.779 2°48.558 318.7 2.8 271 10.1
2005-05-13 08:12:19 51°13.779 2°48.553 321.2 2.8 271 10.1
2005-05-13 08:12:24 51°13.779 2°48.546 324.1 2.6 272 10
2005-05-13 08:12:29 51°13.779 2°48.54 326.6 2.6 272 10
2005-05-13 08:12:34 51°13.779 2°48.535 329.2 2.7 272 9.8
2005-05-13 08:12:39 51°13.779 2°48.53 330.2 2.8 273 9.7
2005-05-13 08:12:44 51°13.779 2°48.524 330.3 2.8 273 9.7
2005-05-13 08:12:49 51°13.78 2°48.519 330.8 2.5 275 9.7
2005-05-13 08:12:54 51°13.781 2°48.513 331.2 2.6 277 10
2005-05-13 08:12:59 51°13.781 2°48.508 331.3 2.6 277 10.2
2005-05-13 08:13:04 51°13.782 2°48.501 330.9 2.6 277 10.3
2005-05-13 08:13:08 51°13.783 2°48.496 330.9 2.8 288 10.4
2005-05-13 08:13:14 51°13.785 2°48.488 330.6 3.1 288 10.5
2005-05-13 08:13:19 51°13.787 2°48.481 330.5 3.4 288 10.5
2005-05-13 08:13:24 51°13.789 2°48.473 329.6 3.4 291 10.5
2005-05-13 08:13:28 51°13.791 2°48.467 329.9 3.7 294 10.3
2005-05-13 08:13:34 51°13.794 2°48.458 329.9 3.9 296 10.3
2005-05-13 08:13:39 51°13.796 2°48.451 329.5 4 296 10.3
2005-05-13 08:13:44 51°13.799 2°48.442 329.5 4 296 10.2
2005-05-13 08:13:48 51°13.801 2°48.435 328.7 4.4 299 10.3
2005-05-13 08:13:54 51°13.804 2°48.426 328.7 4.4 299 10.3
2005-05-13 08:13:59 51°13.808 2°48.417 327.8 4.6 299 10.3
2005-05-13 08:14:04 51°13.811 2°48.407 327.7 4.6 299 10.4
2005-05-13 08:14:08 51°13.814 2°48.4 327.8 4.7 300 10.3
2005-05-13 08:14:14 51°13.818 2°48.39 327.8 4.6 301 10.4
2005-05-13 08:14:19 51°13.821 2°48.382 329 4.6 301 10.4
2005-05-13 08:14:24 51°13.825 2°48.373 330 4.6 302 10.3
2005-05-13 08:14:29 51°13.828 2°48.365 330.7 4.8 303 10.4
2005-05-13 08:14:34 51°13.832 2°48.355 331.1 4.6 302 10.3
2005-05-13 08:14:39 51°13.835 2°48.347 331 4.6 302 10.4
2005-05-13 08:14:44 51°13.839 2°48.338 331 4.6 302 10.4
2005-05-13 08:14:49 51°13.843 2°48.329 331.5 4.8 303 10.4
2005-05-13 08:14:54 51°13.847 2°48.32 332 4.6 306 10.4
2005-05-13 08:14:59 51°13.851 2°48.313 332.9 4.7 306 10.4
2005-05-13 08:15:04 51°13.854 2°48.305 333.1 4.8 307 10.5
2005-05-13 08:15:09 51°13.858 2°48.296 333.6 4.8 307 10.3
2005-05-13 08:15:14 51°13.863 2°48.286 333.8 4.7 306 10.5
2005-05-13 08:15:19 51°13.866 2°48.278 334.2 4.7 306 10.4
2005-05-13 08:15:24 51°13.87 2°48.271 334.5 4.6 306 10.6
2005-05-13 08:15:29 51°13.874 2°48.261 335.5 4.6 307 10.6
2005-05-13 08:15:34 51°13.878 2°48.254 336.2 4.7 309 10.6
2005-05-13 08:15:39 51°13.882 2°48.246 336.4 4.6 309 10.7
2005-05-13 08:15:44 51°13.887 2°48.238 337 4.7 311 10.6
2005-05-13 08:15:49 51°13.891 2°48.231 338.2 4.7 311 10.7
2005-05-13 08:15:54 51°13.895 2°48.222 338.8 4.8 311 10.7
2005-05-13 08:15:59 51°13.899 2°48.215 339.6 4.7 311 10.8
2005-05-13 08:16:04 51°13.904 2°48.207 340.1 4.7 313 10.7
2005-05-13 08:16:09 51°13.908 2°48.199 340.3 4.8 312 10.7
2005-05-13 08:16:14 51°13.913 2°48.192 340.7 4.6 312 10.7
2005-05-13 08:16:19 51°13.917 2°48.185 340.7 4.6 312 10.7
2005-05-13 08:16:24 51°13.921 2°48.178 341.8 4.4 313 10.6
2005-05-13 08:16:28 51°13.923 2°48.172 342.9 4.2 312 10.6
2005-05-13 08:16:34 51°13.927 2°48.165 343.1 4 308 10.6
2005-05-13 08:16:39 51°13.93 2°48.159 343.1 3.6 305 10.6
2005-05-13 08:16:44 51°13.932 2°48.152 342.6 3.3 302 10.7
2005-05-13 08:16:48 51°13.934 2°48.147 342.4 3.2 304 10.7
2005-05-13 08:16:54 51°13.936 2°48.141 341.9 3.1 300 10.8
2005-05-13 08:16:59 51°13.938 2°48.134 342.2 3.2 300 10.7
2005-05-13 08:17:04 51°13.94 2°48.128 342.3 3.1 298 10.7
2005-05-13 08:17:09 51°13.941 2°48.123 342 3.1 298 10.7
2005-05-13 08:17:14 51°13.943 2°48.117 342.1 2.8 294 10.7
2005-05-13 08:17:19 51°13.944 2°48.112 343.2 2.8 294 10.6
2005-05-13 08:17:24 51°13.945 2°48.106 343.4 2.6 289 10.6
2005-05-13 08:17:29 51°13.946 2°48.102 342.8 2.4 287 10.7
2005-05-13 08:17:34 51°13.947 2°48.096 342.3 2.5 284 10.7
2005-05-13 08:17:39 51°13.948 2°48.091 343.1 2.4 287 10.8
2005-05-13 08:17:44 51°13.948 2°48.086 343.7 2.4 287 10.8
2005-05-13 08:17:48 51°13.949 2°48.081 343.6 2.3 282 10.8
2005-05-13 08:17:54 51°13.95 2°48.075 343.4 2.3 280 10.9
2005-05-13 08:17:59 51°13.95 2°48.07 343.9 2.3 279 10.9
2005-05-13 08:18:04 51°13.951 2°48.065 344.2 2.3 279 10.9
2005-05-13 08:18:08 51°13.951 2°48.062 344.7 2.2 278 10.9
2005-05-13 08:18:14 51°13.952 2°48.056 345 2.2 278 10.9
2005-05-13 08:18:19 51°13.952 2°48.052 345.4 2 276 11
2005-05-13 08:18:24 51°13.952 2°48.046 345.7 2.1 275 10.8
2005-05-13 08:18:29 51°13.952 2°48.042 346 2.1 275 10.7
2005-05-13 08:18:34 51°13.952 2°48.037 345.4 2.1 270 10.7
2005-05-13 08:18:39 51°13.952 2°48.032 345.7 2.1 270 10.7
2005-05-13 08:18:44 51°13.952 2°48.026 345.4 2.1 269 10.5
2005-05-13 08:18:49 51°13.952 2°48.022 345.1 2 261 10.5
2005-05-13 08:18:54 51°13.951 2°48.017 344.9 2.1 260 10.5
2005-05-13 08:18:59 51°13.951 2°48.013 344.1 2.2 263 10.6
2005-05-13 08:19:04 51°13.95 2°48.008 344.2 2 261 10.7
2005-05-13 08:19:08 51°13.95 2°48.004 344.3 2.2 258 10.9
2005-05-13 08:19:14 51°13.949 2°47.999 344.4 2.2 261 10.7
2005-05-13 08:19:19 51°13.948 2°47.994 343.3 2.2 261 10.7
2005-05-13 08:19:24 51°13.947 2°47.989 342.3 2.4 256 10.8
2005-05-13 08:19:28 51°13.947 2°47.986 342.4 2.4 256 10.7
2005-05-13 08:19:34 51°13.946 2°47.979 342.1 2.2 248 10.5
2005-05-13 08:19:39 51°13.945 2°47.975 340.5 2.3 252 10.4
2005-05-13 08:19:44 51°13.944 2°47.97 339.9 2.3 252 10.6
2005-05-13 08:19:48 51°13.944 2°47.966 340.2 2.3 251 10.6
2005-05-13 08:19:54 51°13.943 2°47.961 340.2 2.1 247 10.8
2005-05-13 08:19:59 51°13.941 2°47.957 339.7 2.1 249 10.8
2005-05-13 08:20:04 51°13.941 2°47.953 339 2.3 250 10.8
2005-05-13 08:20:09 51°13.94 2°47.947 337.9 2.3 249 10.9
2005-05-13 08:20:14 51°13.938 2°47.943 337.5 2.1 249 10.9
2005-05-13 08:20:19 51°13.938 2°47.939 336.6 2.1 249 11
2005-05-13 08:20:24 51°13.936 2°47.934 335.5 2.2 248 11
2005-05-13 08:20:28 51°13.935 2°47.931 335.5 2.1 249 11
2005-05-13 08:20:34 51°13.934 2°47.925 334.5 2.1 249 11
2005-05-13 08:20:39 51°13.933 2°47.921 334 2.1 249 11
2005-05-13 08:20:44 51°13.931 2°47.916 334.6 2.3 249 10.8
2005-05-13 08:20:48 51°13.93 2°47.912 334.3 2.3 249 10.7
2005-05-13 08:20:54 51°13.929 2°47.906 333.4 2.4 250 10.7
2005-05-13 08:20:59 51°13.928 2°47.902 333.1 2.1 248 10.8
2005-05-13 08:21:04 51°13.927 2°47.898 332.7 2.4 248 10.8
2005-05-13 08:21:09 51°13.926 2°47.893 332.7 2.4 251 10.9
2005-05-13 08:21:14 51°13.925 2°47.887 333.1 2.2 249 10.9
2005-05-13 08:21:19 51°13.924 2°47.883 333.4 2.1 251 10.8
2005-05-13 08:21:24 51°13.923 2°47.878 332.9 2.1 251 10.8
2005-05-13 08:21:28 51°13.923 2°47.874 333.7 2.5 256 10.8
2005-05-13 08:21:34 51°13.922 2°47.867 334.2 2.5 255 10.9
2005-05-13 08:21:39 51°13.921 2°47.863 335.6 2.4 264 10.7
2005-05-13 08:21:44 51°13.921 2°47.857 336.5 2.4 264 10.6
2005-05-13 08:21:48 51°13.921 2°47.853 338.2 2.5 271 10.6
2005-05-13 08:21:54 51°13.921 2°47.847 340 2.4 274 10.8
2005-05-13 08:21:59 51°13.921 2°47.841 342.2 2.3 272 10.7
2005-05-13 08:22:04 51°13.922 2°47.837 345.1 2.2 277 10.8
2005-05-13 08:22:08 51°13.922 2°47.833 347.5 2.1 278 10.8
2005-05-13 08:22:14 51°13.923 2°47.827 349.4 2.2 280 10.8
2005-05-13 08:22:19 51°13.924 2°47.823 351.8 2.3 280 10.9
2005-05-13 08:22:24 51°13.925 2°47.818 354.7 2.2 284 10.8
2005-05-13 08:22:28 51°13.925 2°47.814 357.4 2 285 10.8
2005-05-13 08:22:34 51°13.927 2°47.81 359.5 2.1 289 10.8
2005-05-13 08:22:39 51°13.928 2°47.806 1.3 2.1 289 10.8
2005-05-13 08:22:44 51°13.93 2°47.802 3.8 2.1 305 10.9
2005-05-13 08:22:48 51°13.931 2°47.799 6.7 1.9 300 10.9
2005-05-13 08:22:54 51°13.933 2°47.795 10.6 1.9 306 10.8
2005-05-13 08:22:59 51°13.935 2°47.792 13 1.8 308 10.8
2005-05-13 08:23:04 51°13.936 2°47.789 15.8 1.8 308 10.8
2005-05-13 08:23:08 51°13.938 2°47.788 18.9 1.7 317 10.8
2005-05-13 08:23:14 51°13.94 2°47.785 21.4 1.7 317 10.8
2005-05-13 08:23:19 51°13.942 2°47.784 24.8 1.6 329 10.9
2005-05-13 08:23:24 51°13.944 2°47.782 27.9 1.5 332 10.8
2005-05-13 08:23:28 51°13.945 2°47.782 30.7 1.4 329 10.8
2005-05-13 08:23:34 51°13.947 2°47.781 33.3 1.3 335 10.9
2005-05-13 08:23:39 51°13.948 2°47.78 35.9 1.1 334 10.9
2005-05-13 08:23:44 51°13.949 2°47.779 38 0.9 345 10.7
2005-05-13 08:23:49 51°13.95 2°47.778 40.6 0.9 345 10.6
2005-05-13 08:23:54 51°13.951 2°47.777 42.1 0.7 325 10.8
2005-05-13 08:23:59 51°13.951 2°47.776 43.4 0.9 308 10.8
2005-05-13 08:24:04 51°13.952 2°47.775 44.6 0.7 292 10.6
2005-05-13 08:24:08 51°13.952 2°47.773 46 0.7 306 10.7
2005-05-13 08:24:14 51°13.952 2°47.772 47.1 0.5 289 10.8
2005-05-13 08:24:19 51°13.952 2°47.771 47.8 0.5 289 10.8
2005-05-13 08:24:24 51°13.952 2°47.769 47.5 0.8 269 10.8
2005-05-13 08:24:29 51°13.952 2°47.766 48.6 0.8 269 10.7
2005-05-13 08:24:34 51°13.952 2°47.764 49.4 1 268 10.8
2005-05-13 08:24:39 51°13.952 2°47.763 50 1 268 10.9
2005-05-13 08:24:44 51°13.952 2°47.761 50.2 0.8 255 10.9
2005-05-13 08:24:48 51°13.952 2°47.759 51 1 263 10.8
2005-05-13 08:24:54 51°13.951 2°47.757 51.5 0.9 244 10.8
2005-05-13 08:24:59 51°13.951 2°47.755 51.5 0.9 250 10.9
2005-05-13 08:25:04 51°13.95 2°47.753 52.2 0.9 251 10.9
2005-05-13 08:25:08 51°13.95 2°47.752 53 0.9 254 10.7
2005-05-13 08:25:14 51°13.95 2°47.749 53.7 1.1 256 10.6
2005-05-13 08:25:19 51°13.949 2°47.747 54.2 1.1 256 10.8
2005-05-13 08:25:24 51°13.948 2°47.745 54.2 0.9 249 10.8
2005-05-13 08:25:29 51°13.948 2°47.742 54.4 1 242 10.9
2005-05-13 08:25:34 51°13.947 2°47.741 54.6 1.1 246 10.7
2005-05-13 08:25:39 51°13.946 2°47.738 55.1 1.1 246 10.6
2005-05-13 08:25:44 51°13.945 2°47.735 55.9 1.2 236 10.6
2005-05-13 08:25:48 51°13.944 2°47.733 57.1 1.4 242 10.6
2005-05-13 08:25:54 51°13.943 2°47.73 57.9 1.3 231 10.6
2005-05-13 08:25:59 51°13.942 2°47.727 57.6 1.6 238 10.7
2005-05-13 08:26:04 51°13.941 2°47.724 58.7 1.6 238 10.7
2005-05-13 08:26:08 51°13.94 2°47.722 60 1.7 238 10.6
2005-05-13 08:26:14 51°13.938 2°47.718 61 1.6 225 10.6
2005-05-13 08:26:19 51°13.937 2°47.715 62.7 1.6 227 10.6
2005-05-13 08:26:23 51°13.936 2°47.713 64.3 1.6 227 10.8
2005-05-13 08:26:29 51°13.934 2°47.709 64.9 1.6 227 10.6
2005-05-13 08:26:34 51°13.933 2°47.705 66.9 1.8 240 10.7
2005-05-13 08:26:39 51°13.931 2°47.703 68.8 1.9 239 10.8
2005-05-13 08:26:43 51°13.929 2°47.7 69 1.8 224 10.7
2005-05-13 08:26:48 51°13.928 2°47.697 70.3 1.9 242 10.5
2005-05-13 08:26:54 51°13.926 2°47.692 71.5 1.9 234 10.6
2005-05-13 08:26:59 51°13.924 2°47.69 72.6 1.9 233 10.7
2005-05-13 08:27:04 51°13.923 2°47.686 74 1.8 238 10.9
2005-05-13 08:27:08 51°13.921 2°47.683 75.2 1.9 227 10.9
2005-05-13 08:27:14 51°13.919 2°47.679 76.7 2 232 11
2005-05-13 08:27:19 51°13.918 2°47.676 77.7 2 232 11
2005-05-13 08:27:24 51°13.916 2°47.672 79 2 232 11.1
2005-05-13 08:27:29 51°13.914 2°47.669 80.8 2 228 11
2005-05-13 08:27:34 51°13.912 2°47.665 82.7 2.1 242 10.8
2005-05-13 08:27:39 51°13.911 2°47.661 85.1 2.1 242 10.7
2005-05-13 08:27:43 51°13.908 2°47.658 87.6 2.1 235 10.6
2005-05-13 08:27:49 51°13.906 2°47.654 88.2 2.1 233 10.5
2005-05-13 08:27:54 51°13.905 2°47.65 90.1 2.1 233 10.5
2005-05-13 08:27:59 51°13.903 2°47.647 92.1 2.2 231 10.7
2005-05-13 08:28:04 51°13.901 2°47.643 94.5 2.2 232 10.7
2005-05-13 08:28:08 51°13.899 2°47.64 96.5 2.2 230 10.7
2005-05-13 08:28:14 51°13.897 2°47.636 98.9 2.1 232 10.6
2005-05-13 08:28:19 51°13.896 2°47.633 101.4 2.1 232 10.7
2005-05-13 08:28:24 51°13.893 2°47.629 103.8 2.2 227 10.8
2005-05-13 08:28:29 51°13.892 2°47.626 106.3 1.9 229 10.9
2005-05-13 08:28:34 51°13.89 2°47.622 108.3 1.9 229 10.9
2005-05-13 08:28:39 51°13.888 2°47.619 109.9 1.9 229 10.8
2005-05-13 08:28:44 51°13.886 2°47.617 112.2 1.9 229 10.8
2005-05-13 08:28:48 51°13.884 2°47.616 112.7 1.9 205 10.8
2005-05-13 08:28:54 51°13.881 2°47.615 112.2 1.9 205 10.6
2005-05-13 08:28:59 51°13.878 2°47.615 110.8 1.8 186 10.8
2005-05-13 08:29:03 51°13.876 2°47.615 108.6 1.9 185 10.6
2005-05-13 08:29:09 51°13.873 2°47.616 105.3 2.1 170 10.5
2005-05-13 08:29:14 51°13.872 2°47.617 102.4 2.1 170 10.6
2005-05-13 08:29:19 51°13.87 2°47.618 99.2 2.1 170 10.8
2005-05-13 08:29:24 51°13.867 2°47.62 95.8 1.6 160 10.7
2005-05-13 08:29:28 51°13.867 2°47.621 93 1.7 155 10.6
2005-05-13 08:29:34 51°13.864 2°47.623 90.9 1.5 151 10.7
2005-05-13 08:29:39 51°13.863 2°47.624 87.4 1.4 148 10.6
2005-05-13 08:29:44 51°13.862 2°47.626 85.2 1 143 10.5
2005-05-13 08:29:49 51°13.861 2°47.628 82.7 0.8 135 10.5
2005-05-13 08:29:54 51°13.86 2°47.629 79.5 1.2 138 10.7
2005-05-13 08:29:59 51°13.86 2°47.63 76.8 1.1 141 10.8
2005-05-13 08:30:04 51°13.859 2°47.633 73.9 1.2 128 10.7
2005-05-13 08:30:09 51°13.859 2°47.634 70.2 0.7 75 10.8
2005-05-13 08:30:14 51°13.86 2°47.637 65.2 1 91 10.9
2005-05-13 08:30:19 51°13.861 2°47.639 59.7 1.1 43 10.7
2005-05-13 08:30:24 51°13.863 2°47.64 52.3 1.1 43 10.8
2005-05-13 08:30:28 51°13.864 2°47.64 46 1.2 20 10.9
2005-05-13 08:30:34 51°13.866 2°47.641 41.6 1.2 23 10.9
2005-05-13 08:30:39 51°13.868 2°47.64 36.3 1.3 -999 10.8
2005-05-13 08:30:44 51°13.869 2°47.639 30.5 1.4 341 10.8
2005-05-13 08:30:49 51°13.872 2°47.637 26.7 1.4 337 10.8
2005-05-13 08:30:54 51°13.873 2°47.635 24.4 1.5 329 10.9
2005-05-13 08:30:59 51°13.875 2°47.633 21.7 1.5 329 10.8
2005-05-13 08:31:04 51°13.876 2°47.631 19 1.5 314 10.8
2005-05-13 08:31:09 51°13.878 2°47.628 16.8 1.5 314 10.8
2005-05-13 08:31:14 51°13.879 2°47.624 15.5 1.5 314 10.6
2005-05-13 08:31:19 51°13.88 2°47.622 13.8 1.5 298 10.6
2005-05-13 08:31:24 51°13.881 2°47.618 11.4 1.6 296 10.6
2005-05-13 08:31:28 51°13.882 2°47.615 9.7 1.8 291 10.5
2005-05-13 08:31:35 51°13.882 2°47.61 8.8 1.7 287 10.7
2005-05-13 08:31:39 51°13.883 2°47.606 8 1.8 288 10.7
2005-05-13 08:31:44 51°13.884 2°47.602 7.2 1.8 284 10.6
2005-05-13 08:31:49 51°13.884 2°47.598 6.7 1.8 284 10.8
2005-05-13 08:31:54 51°13.885 2°47.595 7.2 1.6 284 10.8
2005-05-13 08:31:59 51°13.886 2°47.592 8.3 1.8 288 10.7
2005-05-13 08:32:04 51°13.887 2°47.588 9.9 1.8 288 10.6
2005-05-13 08:32:08 51°13.888 2°47.585 11.6 1.8 298 10.7
2005-05-13 08:32:14 51°13.89 2°47.582 14.1 1.7 317 10.7
2005-05-13 08:32:19 51°13.892 2°47.58 17.1 1.8 321 10.8
2005-05-13 08:32:24 51°13.895 2°47.578 21.2 1.8 333 10.7
2005-05-13 08:32:28 51°13.897 2°47.578 25.8 1.8 334 10.6
2005-05-13 08:32:34 51°13.9 2°47.577 29 1.8 346 10.8
2005-05-13 08:32:39 51°13.903 2°47.577 30.6 2 354 10.7
2005-05-13 08:32:44 51°13.905 2°47.577 32.3 2 356 10.8
2005-05-13 08:32:48 51°13.908 2°47.577 33.5 2 356 10.7
2005-05-13 08:32:54 51°13.912 2°47.579 34.6 2 356 10.8
2005-05-13 08:32:59 51°13.916 2°47.58 35.6 2.5 12 10.6
2005-05-13 08:33:04 51°13.92 2°47.582 36.9 2.9 17 10.6
2005-05-13 08:33:09 51°13.924 2°47.585 37.6 3.2 22 10.6
2005-05-13 08:33:14 51°13.929 2°47.589 38.7 3.1 22 10.6
2005-05-13 08:33:19 51°13.933 2°47.592 39.5 3.4 26 10.7
2005-05-13 08:33:23 51°13.936 2°47.596 40.9 3.6 29 10.7
2005-05-13 08:33:29 51°13.942 2°47.602 42.2 3.6 29 10.7
2005-05-13 08:33:34 51°13.947 2°47.607 43.7 4 36 10.6
2005-05-13 08:33:39 51°13.951 2°47.612 44.9 4 36 10.4
2005-05-13 08:33:44 51°13.955 2°47.618 45.7 4.1 35 10.5
2005-05-13 08:33:49 51°13.96 2°47.624 46.4 4.2 36 10.6
2005-05-13 08:33:54 51°13.965 2°47.63 47 4.4 40 10.7
2005-05-13 08:33:59 51°13.969 2°47.635 47.5 4.3 39 10.8
2005-05-13 08:34:04 51°13.974 2°47.643 48.2 4.3 39 10.6
2005-05-13 08:34:09 51°13.978 2°47.648 49.4 4.3 42 10.7
2005-05-13 08:34:14 51°13.982 2°47.655 50.2 4 43 10.7
2005-05-13 08:34:19 51°13.986 2°47.661 51.2 4 44 10.7
2005-05-13 08:34:23 51°13.989 2°47.665 52 3.8 46 10.5
2005-05-13 08:34:28 51°13.992 2°47.67 52.8 3.8 48 10.6
2005-05-13 08:34:34 51°13.997 2°47.679 53.6 3.6 44 10.7
2005-05-13 08:34:39 51°14 2°47.684 54 3.5 50 10.7
2005-05-13 08:34:44 51°14.003 2°47.691 54.1 3.6 52 10.6
2005-05-13 08:34:48 51°14.005 2°47.695 55.2 3.4 51 10.6
2005-05-13 08:34:54 51°14.009 2°47.702 55.9 3.5 53 10.5
2005-05-13 08:34:59 51°14.011 2°47.708 56.8 3.5 53 10.5
2005-05-13 08:35:04 51°14.014 2°47.713 58 3.3 50 10.6
2005-05-13 08:35:09 51°14.016 2°47.72 58 3.3 50 10.8
2005-05-13 08:35:14 51°14.019 2°47.726 57.1 3.2 54 10.6
2005-05-13 08:35:19 51°14.022 2°47.73 56.5 3.2 54 10.6
2005-05-13 08:35:24 51°14.024 2°47.736 55.3 3.2 51 10.8
2005-05-13 08:35:28 51°14.026 2°47.74 54.3 3 51 10.7
2005-05-13 08:35:35 51°14.03 2°47.745 53.5 3 51 10.7
2005-05-13 08:35:39 51°14.032 2°47.75 52.2 3 51 10.7
2005-05-13 08:35:44 51°14.036 2°47.754 50.8 2.9 45 10.7
2005-05-13 08:35:49 51°14.038 2°47.758 48.6 2.8 42 10.7
2005-05-13 08:35:54 51°14.041 2°47.762 48.4 2.8 42 10.5
2005-05-13 08:35:59 51°14.044 2°47.765 48.6 2.6 39 10.5
2005-05-13 08:36:04 51°14.047 2°47.769 48.7 2.7 38 10.6
2005-05-13 08:36:09 51°14.05 2°47.773 49.2 2.7 38 10.8
2005-05-13 08:36:14 51°14.053 2°47.777 49.7 2.7 43 10.9
2005-05-13 08:36:19 51°14.055 2°47.781 50.2 2.7 41 10.6
2005-05-13 08:36:24 51°14.058 2°47.787 51.9 2.7 49 10.7
2005-05-13 08:36:29 51°14.06 2°47.791 55 2.7 58 10.7
2005-05-13 08:36:34 51°14.061 2°47.797 59.4 2.8 68 10.7
2005-05-13 08:36:39 51°14.062 2°47.803 63.8 2.9 73 10.8
2005-05-13 08:36:44 51°14.062 2°47.81 68.7 2.9 73 10.6
2005-05-13 08:36:49 51°14.063 2°47.815 73.8 2.9 86 10.6
2005-05-13 08:36:53 51°14.062 2°47.822 78.9 2.9 84 10.6
2005-05-13 08:36:59 51°14.061 2°47.829 83 3.1 93 10.7
2005-05-13 08:37:04 51°14.06 2°47.838 86.2 3.2 97 10.5
2005-05-13 08:37:09 51°14.06 2°47.845 86.9 3.2 97 10.5
2005-05-13 08:37:14 51°14.059 2°47.852 85.6 3.3 96 10.6
2005-05-13 08:37:19 51°14.058 2°47.859 84.1 3.3 96 10.7
2005-05-13 08:37:24 51°14.059 2°47.867 82.8 3.2 87 10.7
2005-05-13 08:37:29 51°14.058 2°47.874 81.2 3.4 93 10.6
2005-05-13 08:37:34 51°14.058 2°47.882 81.1 3.4 93 10.6
2005-05-13 08:37:39 51°14.058 2°47.888 80.7 3.2 92 10.5
2005-05-13 08:37:44 51°14.057 2°47.896 80.1 3.2 92 10.6
2005-05-13 08:37:48 51°14.058 2°47.901 80.5 3.2 92 10.7
2005-05-13 08:37:54 51°14.058 2°47.91 80.5 3.2 92 10.9
2005-05-13 08:37:59 51°14.057 2°47.916 80.5 3.2 92 10.8
2005-05-13 08:38:04 51°14.057 2°47.924 80.8 3.2 90 10.8
2005-05-13 08:38:09 51°14.056 2°47.931 80.9 3 95 10.7
2005-05-13 08:38:14 51°14.056 2°47.937 81.3 3 92 10.5
2005-05-13 08:38:19 51°14.056 2°47.944 81.2 3.1 91 10.6
2005-05-13 08:38:24 51°14.056 2°47.951 80.2 3.1 91 10.8
2005-05-13 08:38:28 51°14.055 2°47.957 79.9 3 92 10.8
2005-05-13 08:38:34 51°14.055 2°47.965 79.7 3 89 10.8
2005-05-13 08:38:39 51°14.055 2°47.971 79.8 3 89 10.8
2005-05-13 08:38:44 51°14.055 2°47.979 79.1 3.1 90 10.6
2005-05-13 08:38:49 51°14.054 2°47.985 79.7 3 90 10.5
2005-05-13 08:38:54 51°14.054 2°47.992 80.1 2.9 87 10.4
2005-05-13 08:38:59 51°14.054 2°47.999 80.9 3.3 97 10.4
2005-05-13 08:39:04 51°14.054 2°48.006 80.8 3.1 89 10.4
2005-05-13 08:39:08 51°14.054 2°48.011 80.3 3 96 10.5
2005-05-13 08:39:14 51°14.054 2°48.018 79.6 3 96 10.4
2005-05-13 08:39:19 51°14.053 2°48.025 79.8 2.9 93 10.4
2005-05-13 08:39:24 51°14.052 2°48.032 79.6 2.9 93 10.4
2005-05-13 08:39:29 51°14.052 2°48.038 79.1 2.7 92 10.5
2005-05-13 08:39:34 51°14.052 2°48.044 80 2.8 93 10.6
2005-05-13 08:39:39 51°14.052 2°48.05 79.7 2.8 90 10.7
2005-05-13 08:39:44 51°14.052 2°48.057 79.4 2.9 90 10.9
2005-05-13 08:39:48 51°14.052 2°48.062 78.6 2.9 93 10.8
2005-05-13 08:39:54 51°14.052 2°48.069 78.2 2.8 95 10.9
2005-05-13 08:39:59 51°14.052 2°48.075 79.1 2.7 90 10.8
2005-05-13 08:40:04 51°14.052 2°48.081 79.5 2.7 90 10.8
2005-05-13 08:40:09 51°14.052 2°48.087 78.3 2.7 93 10.8
2005-05-13 08:40:14 51°14.051 2°48.093 78.5 3 96 10.8
2005-05-13 08:40:19 51°14.051 2°48.099 78.2 2.7 89 10.6
2005-05-13 08:40:24 51°14.052 2°48.105 78.3 2.6 92 10.5
2005-05-13 08:40:29 51°14.052 2°48.111 78.3 2.6 92 10.5
2005-05-13 08:40:34 51°14.051 2°48.118 78.4 2.8 86 10.5
2005-05-13 08:40:39 51°14.052 2°48.124 78.5 2.8 88 10.5
2005-05-13 08:40:44 51°14.052 2°48.13 78.4 3 94 10.5
2005-05-13 08:40:49 51°14.051 2°48.136 78.8 3 94 10.6
2005-05-13 08:40:54 51°14.051 2°48.143 78.2 2.7 87 10.7
2005-05-13 08:40:59 51°14.051 2°48.148 78.1 2.8 89 10.7
2005-05-13 08:41:04 51°14.051 2°48.155 77.8 2.8 89 10.7
2005-05-13 08:41:08 51°14.052 2°48.16 78.3 2.8 91 10.8